createdAt,value
2018-08-12T00:00:12.552Z,0.00
2018-08-12T00:01:12.584Z,0.00
2018-08-12T00:02:12.606Z,0.00
2018-08-12T00:03:12.638Z,0.00
2018-08-12T00:04:12.658Z,0.00
2018-08-12T00:05:12.672Z,0.00
2018-08-12T00:06:12.699Z,0.00
2018-08-12T00:07:12.724Z,0.00
2018-08-12T00:08:12.746Z,0.00
2018-08-12T00:09:12.807Z,0.00
2018-08-12T00:10:12.783Z,0.00
2018-08-12T00:11:12.815Z,0.00
2018-08-12T00:12:12.843Z,0.00
2018-08-12T00:13:12.905Z,0.00
2018-08-12T00:14:12.904Z,0.00
2018-08-12T00:15:12.949Z,0.00
2018-08-12T00:16:12.931Z,0.00
2018-08-12T00:17:12.954Z,0.00
2018-08-12T00:18:12.972Z,0.00
2018-08-12T00:19:13.021Z,0.00
2018-08-12T00:20:13.021Z,0.00
2018-08-12T00:21:13.046Z,0.00
2018-08-12T00:22:13.144Z,0.00
2018-08-12T00:23:13.102Z,0.00
2018-08-12T00:24:13.118Z,0.00
2018-08-12T00:25:13.141Z,0.00
2018-08-12T00:26:13.160Z,0.00
2018-08-12T00:27:13.191Z,0.00
2018-08-12T00:28:13.221Z,0.00
2018-08-12T00:29:13.231Z,0.00
2018-08-12T00:31:13.281Z,0.00
2018-08-12T00:32:13.307Z,0.00
2018-08-12T00:33:13.325Z,0.00
2018-08-12T00:34:13.349Z,0.00
2018-08-12T00:35:13.369Z,0.00
2018-08-12T00:36:13.389Z,0.00
2018-08-12T00:37:13.426Z,0.00
2018-08-12T00:38:13.447Z,0.00
2018-08-12T00:39:13.471Z,0.00
2018-08-12T00:40:13.495Z,0.00
2018-08-12T00:41:13.567Z,0.00
2018-08-12T00:42:13.537Z,0.00
2018-08-12T00:43:13.722Z,0.00
2018-08-12T00:44:13.591Z,0.00
2018-08-12T00:45:13.602Z,0.00
2018-08-12T00:46:13.685Z,0.00
2018-08-12T00:47:13.656Z,0.00
2018-08-12T00:48:13.687Z,0.00
2018-08-12T00:49:13.698Z,0.00
2018-08-12T00:50:13.724Z,0.00
2018-08-12T00:51:13.759Z,0.00
2018-08-12T00:52:13.759Z,0.00
2018-08-12T00:53:13.790Z,0.00
2018-08-12T00:54:13.819Z,0.00
2018-08-12T00:55:13.863Z,0.00
2018-08-12T00:56:13.857Z,0.00
2018-08-12T00:57:13.958Z,0.00
2018-08-12T00:58:13.954Z,0.00
2018-08-12T00:59:13.942Z,0.00
2018-08-12T01:00:13.949Z,0.00
2018-08-12T01:01:13.971Z,0.00
2018-08-12T01:02:14.007Z,0.00
2018-08-12T01:03:14.022Z,0.00
2018-08-12T01:04:14.058Z,0.00
2018-08-12T01:05:14.063Z,0.00
2018-08-12T01:06:14.104Z,0.00
2018-08-12T01:07:14.117Z,0.00
2018-08-12T01:08:14.137Z,0.00
2018-08-12T01:09:14.156Z,0.00
2018-08-12T01:10:14.216Z,0.00
2018-08-12T01:11:14.207Z,0.00
2018-08-12T01:12:14.280Z,0.00
2018-08-12T01:13:14.262Z,0.00
2018-08-12T01:14:14.268Z,0.00
2018-08-12T01:15:14.313Z,0.00
2018-08-12T01:16:14.316Z,0.00
2018-08-12T01:17:14.351Z,0.00
2018-08-12T01:19:14.415Z,0.00
2018-08-12T01:21:14.436Z,0.00
2018-08-12T01:22:14.484Z,0.00
2018-08-12T01:23:17.478Z,0.00
2018-08-12T01:24:14.535Z,0.00
2018-08-12T01:25:14.571Z,0.00
2018-08-12T01:26:14.539Z,0.00
2018-08-12T01:28:14.584Z,0.00
2018-08-12T01:29:14.608Z,0.00
2018-08-12T01:30:14.637Z,0.00
2018-08-12T01:31:14.666Z,0.00
2018-08-12T01:32:14.678Z,0.00
2018-08-12T01:33:14.712Z,0.00
2018-08-12T01:34:14.720Z,0.00
2018-08-12T01:35:14.752Z,0.00
2018-08-12T01:36:14.794Z,0.00
2018-08-12T01:37:14.799Z,0.00
2018-08-12T01:38:14.822Z,0.00
2018-08-12T01:39:14.843Z,0.00
2018-08-12T01:40:14.858Z,0.00
2018-08-12T01:41:14.896Z,0.00
2018-08-12T01:42:14.919Z,0.00
2018-08-12T01:43:15.052Z,0.00
2018-08-12T01:44:14.952Z,0.00
2018-08-12T01:45:14.978Z,0.00
2018-08-12T01:46:14.994Z,0.00
2018-08-12T01:47:15.021Z,0.00
2018-08-12T01:48:15.048Z,0.00
2018-08-12T01:49:15.061Z,0.00
2018-08-12T01:50:15.091Z,0.00
2018-08-12T01:51:15.115Z,0.00
2018-08-12T01:52:15.182Z,0.00
2018-08-12T01:53:15.164Z,0.00
2018-08-12T01:54:15.299Z,0.00
2018-08-12T01:55:15.210Z,0.00
2018-08-12T01:56:15.385Z,0.00
2018-08-12T01:57:15.259Z,0.00
2018-08-12T01:58:15.278Z,0.00
2018-08-12T01:59:15.291Z,0.00
2018-08-12T02:00:15.318Z,0.00
2018-08-12T02:01:15.339Z,0.00
2018-08-12T02:02:15.358Z,0.00
2018-08-12T02:03:15.389Z,0.00
2018-08-12T02:04:15.403Z,0.00
2018-08-12T02:05:15.429Z,0.00
2018-08-12T02:08:15.492Z,0.00
2018-08-12T02:09:15.515Z,0.00
2018-08-12T02:10:15.545Z,0.00
2018-08-12T02:11:15.573Z,0.00
2018-08-12T02:12:15.593Z,0.00
2018-08-12T02:13:15.610Z,0.00
2018-08-12T02:14:15.634Z,0.00
2018-08-12T02:15:15.652Z,0.00
2018-08-12T02:16:15.806Z,0.00
2018-08-12T02:17:15.707Z,0.00
2018-08-12T02:18:15.779Z,0.00
2018-08-12T02:19:15.745Z,0.00
2018-08-12T02:20:15.773Z,0.00
2018-08-12T02:21:15.798Z,0.00
2018-08-12T02:22:15.827Z,0.00
2018-08-12T02:23:15.843Z,0.00
2018-08-12T02:24:15.859Z,0.00
2018-08-12T02:25:15.879Z,0.00
2018-08-12T02:26:15.893Z,0.00
2018-08-12T02:27:15.959Z,0.00
2018-08-12T02:29:15.965Z,0.00
2018-08-12T02:30:16.001Z,0.00
2018-08-12T02:31:16.032Z,0.00
2018-08-12T02:32:16.029Z,0.00
2018-08-12T02:33:16.061Z,0.00
2018-08-12T02:34:16.078Z,0.00
2018-08-12T02:35:16.125Z,0.00
2018-08-12T02:36:16.138Z,0.00
2018-08-12T02:37:16.185Z,0.00
2018-08-12T02:38:16.188Z,0.00
2018-08-12T02:39:16.193Z,0.00
2018-08-12T02:41:16.251Z,0.00
2018-08-12T02:42:16.265Z,0.00
2018-08-12T02:43:16.289Z,0.00
2018-08-12T02:44:16.304Z,0.00
2018-08-12T02:45:16.348Z,0.00
2018-08-12T02:46:16.349Z,0.00
2018-08-12T02:47:16.381Z,0.00
2018-08-12T02:48:16.399Z,0.00
2018-08-12T02:49:16.411Z,0.00
2018-08-12T02:50:16.436Z,0.00
2018-08-12T02:51:16.463Z,0.00
2018-08-12T02:52:16.490Z,0.00
2018-08-12T02:53:16.810Z,0.00
2018-08-12T02:54:16.526Z,0.00
2018-08-12T02:55:16.556Z,0.00
2018-08-12T02:56:16.579Z,0.00
2018-08-12T02:57:16.602Z,0.00
2018-08-12T02:58:16.631Z,0.00
2018-08-12T02:59:17.641Z,0.00
2018-08-12T03:00:16.666Z,0.00
2018-08-12T03:02:16.706Z,0.00
2018-08-12T03:03:16.726Z,0.00
2018-08-12T03:04:16.751Z,0.00
2018-08-12T03:05:16.783Z,0.00
2018-08-12T03:06:16.794Z,0.00
2018-08-12T03:07:16.819Z,0.00
2018-08-12T03:08:16.856Z,0.00
2018-08-12T03:09:16.862Z,0.00
2018-08-12T03:10:16.882Z,0.00
2018-08-12T03:11:16.909Z,0.00
2018-08-12T03:12:16.934Z,0.00
2018-08-12T03:13:16.950Z,0.00
2018-08-12T03:14:16.972Z,0.00
2018-08-12T03:15:16.997Z,0.00
2018-08-12T03:16:17.019Z,0.00
2018-08-12T03:17:17.043Z,0.00
2018-08-12T03:18:17.064Z,0.00
2018-08-12T03:19:17.091Z,0.00
2018-08-12T03:20:17.123Z,0.00
2018-08-12T03:21:17.128Z,0.00
2018-08-12T03:22:17.205Z,0.00
2018-08-12T03:23:17.185Z,0.00
2018-08-12T03:24:17.197Z,0.00
2018-08-12T03:25:17.213Z,0.00
2018-08-12T03:26:17.241Z,0.00
2018-08-12T03:27:17.260Z,0.00
2018-08-12T03:28:17.282Z,0.00
2018-08-12T03:29:17.304Z,0.00
2018-08-12T03:30:17.369Z,0.00
2018-08-12T03:31:17.351Z,0.00
2018-08-12T03:32:17.381Z,0.00
2018-08-12T03:33:17.408Z,0.00
2018-08-12T03:34:17.444Z,0.00
2018-08-12T03:35:17.446Z,0.00
2018-08-12T03:36:17.466Z,0.00
2018-08-12T03:37:17.483Z,0.00
2018-08-12T03:38:17.515Z,0.00
2018-08-12T03:39:17.531Z,0.00
2018-08-12T03:40:17.550Z,0.00
2018-08-12T03:41:17.572Z,0.00
2018-08-12T03:42:17.595Z,0.00
2018-08-12T03:43:17.621Z,0.00
2018-08-12T03:44:17.636Z,0.00
2018-08-12T03:45:17.657Z,0.00
2018-08-12T03:46:17.693Z,0.00
2018-08-12T03:48:17.721Z,0.00
2018-08-12T03:49:17.748Z,0.00
2018-08-12T03:50:17.801Z,0.00
2018-08-12T03:51:17.795Z,0.00
2018-08-12T03:53:17.841Z,0.00
2018-08-12T03:54:17.888Z,0.00
2018-08-12T03:55:17.878Z,0.00
2018-08-12T03:56:17.962Z,0.00
2018-08-12T03:57:17.949Z,0.00
2018-08-12T03:58:17.947Z,0.00
2018-08-12T03:59:17.975Z,0.00
2018-08-12T04:00:18.001Z,0.00
2018-08-12T04:01:18.012Z,0.00
2018-08-12T04:02:18.083Z,4.00
2018-08-12T04:03:18.060Z,4.00
2018-08-12T04:04:18.075Z,0.00
2018-08-12T04:05:18.096Z,0.00
2018-08-12T04:06:18.120Z,4.00
2018-08-12T04:07:18.145Z,4.00
2018-08-12T04:08:18.163Z,4.00
2018-08-12T04:09:18.227Z,4.00
2018-08-12T04:10:18.212Z,8.00
2018-08-12T04:11:18.229Z,4.00
2018-08-12T04:12:18.264Z,8.00
2018-08-12T04:13:18.271Z,4.00
2018-08-12T04:14:18.313Z,8.00
2018-08-12T04:15:18.318Z,8.00
2018-08-12T04:16:18.344Z,8.00
2018-08-12T04:17:18.368Z,8.00
2018-08-12T04:18:18.384Z,12.00
2018-08-12T04:19:18.450Z,12.00
2018-08-12T04:20:18.509Z,12.00
2018-08-12T04:21:18.449Z,12.00
2018-08-12T04:22:18.478Z,16.00
2018-08-12T04:23:18.491Z,16.00
2018-08-12T04:24:18.538Z,16.00
2018-08-12T04:25:18.530Z,16.00
2018-08-12T04:26:18.560Z,16.00
2018-08-12T04:27:18.583Z,20.00
2018-08-12T04:28:18.602Z,16.00
2018-08-12T04:29:18.627Z,20.00
2018-08-12T04:30:18.648Z,20.00
2018-08-12T04:31:18.661Z,24.00
2018-08-12T04:32:18.689Z,24.00
2018-08-12T04:33:18.742Z,28.00
2018-08-12T04:34:18.732Z,20.00
2018-08-12T04:35:18.754Z,24.00
2018-08-12T04:36:18.772Z,24.00
2018-08-12T04:37:18.795Z,24.00
2018-08-12T04:38:18.822Z,24.00
2018-08-12T04:39:18.841Z,28.00
2018-08-12T04:40:18.865Z,24.00
2018-08-12T04:41:18.881Z,28.00
2018-08-12T04:42:18.907Z,28.00
2018-08-12T04:43:18.931Z,28.00
2018-08-12T04:44:18.951Z,32.00
2018-08-12T04:45:18.973Z,32.00
2018-08-12T04:46:18.996Z,32.00
2018-08-12T04:47:19.015Z,32.00
2018-08-12T04:48:19.034Z,32.00
2018-08-12T04:49:19.057Z,36.00
2018-08-12T04:51:19.101Z,36.00
2018-08-12T04:52:19.127Z,36.00
2018-08-12T04:53:19.147Z,36.00
2018-08-12T04:54:19.168Z,40.00
2018-08-12T04:55:19.194Z,36.00
2018-08-12T04:57:19.235Z,40.00
2018-08-12T04:58:19.250Z,40.00
2018-08-12T04:59:19.270Z,44.00
2018-08-12T05:00:19.292Z,40.00
2018-08-12T05:01:19.313Z,40.00
2018-08-12T05:02:19.338Z,44.00
2018-08-12T05:03:19.364Z,44.00
2018-08-12T05:04:19.383Z,44.00
2018-08-12T05:05:19.404Z,48.00
2018-08-12T05:06:19.426Z,48.00
2018-08-12T05:07:19.461Z,48.00
2018-08-12T05:08:19.465Z,48.00
2018-08-12T05:09:19.513Z,52.00
2018-08-12T05:10:19.583Z,52.00
2018-08-12T05:11:19.534Z,52.00
2018-08-12T05:12:19.608Z,52.00
2018-08-12T05:13:19.579Z,52.00
2018-08-12T05:14:19.610Z,56.00
2018-08-12T05:15:19.623Z,56.00
2018-08-12T05:16:19.646Z,56.00
2018-08-12T05:18:19.696Z,56.00
2018-08-12T05:19:19.714Z,60.00
2018-08-12T05:20:19.727Z,60.00
2018-08-12T05:21:19.760Z,60.00
2018-08-12T05:22:19.772Z,60.00
2018-08-12T05:23:19.797Z,64.00
2018-08-12T05:24:19.827Z,60.00
2018-08-12T05:25:19.842Z,64.00
2018-08-12T05:26:19.866Z,64.00
2018-08-12T05:27:19.879Z,64.00
2018-08-12T05:28:19.911Z,68.00
2018-08-12T05:30:19.953Z,68.00
2018-08-12T05:31:20.005Z,68.00
2018-08-12T05:32:20.006Z,72.00
2018-08-12T05:33:20.017Z,72.00
2018-08-12T05:34:20.034Z,72.00
2018-08-12T05:35:20.071Z,76.00
2018-08-12T05:36:20.087Z,76.00
2018-08-12T05:37:20.102Z,80.00
2018-08-12T05:38:20.132Z,80.00
2018-08-12T05:39:20.146Z,80.00
2018-08-12T05:40:20.163Z,84.00
2018-08-12T05:41:20.188Z,84.00
2018-08-12T05:42:20.214Z,84.00
2018-08-12T05:43:20.235Z,84.00
2018-08-12T05:44:20.255Z,88.00
2018-08-12T05:45:20.276Z,88.00
2018-08-12T05:46:20.302Z,92.00
2018-08-12T05:47:20.322Z,92.00
2018-08-12T05:48:20.360Z,96.00
2018-08-12T05:49:20.382Z,96.00
2018-08-12T05:50:20.407Z,96.00
2018-08-12T05:51:20.447Z,96.00
2018-08-12T05:52:20.448Z,96.00
2018-08-12T05:53:20.468Z,100.00
2018-08-12T05:54:20.491Z,104.00
2018-08-12T05:55:20.494Z,108.00
2018-08-12T05:56:20.526Z,112.00
2018-08-12T05:57:20.567Z,112.00
2018-08-12T05:58:20.557Z,116.00
2018-08-12T05:59:20.586Z,120.00
2018-08-12T06:00:20.610Z,120.00
2018-08-12T06:01:20.625Z,124.00
2018-08-12T06:02:20.667Z,124.00
2018-08-12T06:03:20.691Z,124.00
2018-08-12T06:04:20.699Z,124.00
2018-08-12T06:05:20.713Z,124.00
2018-08-12T06:06:20.741Z,128.00
2018-08-12T06:07:20.759Z,128.00
2018-08-12T06:08:20.792Z,132.00
2018-08-12T06:09:20.806Z,132.00
2018-08-12T06:10:20.830Z,136.00
2018-08-12T06:11:20.856Z,136.00
2018-08-12T06:12:20.881Z,140.00
2018-08-12T06:13:21.405Z,140.00
2018-08-12T06:14:20.920Z,140.00
2018-08-12T06:15:20.939Z,144.00
2018-08-12T06:16:20.968Z,144.00
2018-08-12T06:18:21.034Z,144.00
2018-08-12T06:19:21.046Z,148.00
2018-08-12T06:20:21.057Z,148.00
2018-08-12T06:21:21.072Z,148.00
2018-08-12T06:22:21.098Z,148.00
2018-08-12T06:23:21.122Z,148.00
2018-08-12T06:24:21.152Z,152.00
2018-08-12T06:25:21.165Z,152.00
2018-08-12T06:26:21.190Z,148.00
2018-08-12T06:27:21.229Z,152.00
2018-08-12T06:28:21.243Z,156.00
2018-08-12T06:29:21.263Z,156.00
2018-08-12T06:30:21.287Z,160.00
2018-08-12T06:31:21.328Z,164.00
2018-08-12T06:32:21.334Z,168.00
2018-08-12T06:33:21.375Z,168.00
2018-08-12T06:34:21.452Z,172.00
2018-08-12T06:35:21.406Z,172.00
2018-08-12T06:36:21.412Z,176.00
2018-08-12T06:37:21.447Z,176.00
2018-08-12T06:38:21.463Z,176.00
2018-08-12T06:39:21.476Z,176.00
2018-08-12T06:40:21.509Z,180.00
2018-08-12T06:41:21.528Z,184.00
2018-08-12T06:42:21.555Z,188.00
2018-08-12T06:43:21.579Z,196.00
2018-08-12T06:44:21.588Z,196.00
2018-08-12T06:45:21.619Z,204.00
2018-08-12T06:46:21.706Z,212.00
2018-08-12T06:47:21.665Z,216.00
2018-08-12T06:48:21.685Z,228.00
2018-08-12T06:49:21.716Z,236.00
2018-08-12T06:50:21.725Z,244.00
2018-08-12T06:51:21.757Z,252.00
2018-08-12T06:52:21.776Z,256.00
2018-08-12T06:53:21.842Z,268.00
2018-08-12T06:54:21.822Z,268.00
2018-08-12T06:55:21.851Z,280.00
2018-08-12T06:56:21.865Z,284.00
2018-08-12T06:57:21.902Z,288.00
2018-08-12T06:58:21.917Z,276.00
2018-08-12T06:59:21.940Z,276.00
2018-08-12T07:00:21.972Z,268.00
2018-08-12T07:01:21.983Z,268.00
2018-08-12T07:02:22.001Z,272.00
2018-08-12T07:03:22.027Z,268.00
2018-08-12T07:04:22.064Z,268.00
2018-08-12T07:05:22.073Z,264.00
2018-08-12T07:07:22.136Z,260.00
2018-08-12T07:08:22.147Z,272.00
2018-08-12T07:09:22.164Z,264.00
2018-08-12T07:10:22.194Z,264.00
2018-08-12T07:11:22.220Z,264.00
2018-08-12T07:12:22.238Z,264.00
2018-08-12T07:13:22.266Z,264.00
2018-08-12T07:14:22.337Z,272.00
2018-08-12T07:16:22.340Z,288.00
2018-08-12T07:17:22.356Z,292.00
2018-08-12T07:18:22.380Z,304.00
2018-08-12T07:19:22.403Z,312.00
2018-08-12T07:20:22.432Z,312.00
2018-08-12T07:21:22.446Z,324.00
2018-08-12T07:22:22.472Z,328.00
2018-08-12T07:23:22.507Z,328.00
2018-08-12T07:24:22.519Z,328.00
2018-08-12T07:25:22.544Z,324.00
2018-08-12T07:26:22.570Z,316.00
2018-08-12T07:27:22.595Z,316.00
2018-08-12T07:28:22.622Z,292.00
2018-08-12T07:29:22.645Z,284.00
2018-08-12T07:30:22.661Z,288.00
2018-08-12T07:31:22.685Z,280.00
2018-08-12T07:32:22.711Z,272.00
2018-08-12T07:33:22.736Z,260.00
2018-08-12T07:34:22.772Z,264.00
2018-08-12T07:35:22.777Z,260.00
2018-08-12T07:36:22.816Z,264.00
2018-08-12T07:37:22.855Z,264.00
2018-08-12T07:38:22.852Z,256.00
2018-08-12T07:39:22.874Z,264.00
2018-08-12T07:40:22.904Z,264.00
2018-08-12T07:41:22.925Z,260.00
2018-08-12T07:42:22.953Z,272.00
2018-08-12T07:43:22.978Z,280.00
2018-08-12T07:44:23.009Z,272.00
2018-08-12T07:45:23.030Z,264.00
2018-08-12T07:46:23.043Z,264.00
2018-08-12T07:47:23.067Z,264.00
2018-08-12T07:48:23.087Z,268.00
2018-08-12T07:49:23.114Z,260.00
2018-08-12T07:50:23.140Z,260.00
2018-08-12T07:51:23.167Z,256.00
2018-08-12T07:52:23.195Z,264.00
2018-08-12T07:53:23.211Z,260.00
2018-08-12T07:54:23.238Z,260.00
2018-08-12T07:55:23.258Z,260.00
2018-08-12T07:56:23.282Z,260.00
2018-08-12T07:57:23.321Z,256.00
2018-08-12T07:58:23.346Z,256.00
2018-08-12T07:59:23.356Z,260.00
2018-08-12T08:00:23.379Z,264.00
2018-08-12T08:01:23.403Z,260.00
2018-08-12T08:02:23.444Z,272.00
2018-08-12T08:03:23.458Z,288.00
2018-08-12T08:04:23.472Z,300.00
2018-08-12T08:05:23.507Z,288.00
2018-08-12T08:06:23.583Z,296.00
2018-08-12T08:07:23.551Z,300.00
2018-08-12T08:08:23.570Z,300.00
2018-08-12T08:09:23.607Z,304.00
2018-08-12T08:10:23.624Z,296.00
2018-08-12T08:11:23.655Z,300.00
2018-08-12T08:12:23.721Z,304.00
2018-08-12T08:13:23.704Z,300.00
2018-08-12T08:14:23.717Z,308.00
2018-08-12T08:15:23.759Z,312.00
2018-08-12T08:16:23.773Z,320.00
2018-08-12T08:17:23.799Z,316.00
2018-08-12T08:18:23.813Z,328.00
2018-08-12T08:19:23.853Z,328.00
2018-08-12T08:20:23.872Z,320.00
2018-08-12T08:21:23.892Z,316.00
2018-08-12T08:22:23.918Z,320.00
2018-08-12T08:23:23.943Z,324.00
2018-08-12T08:24:23.962Z,320.00
2018-08-12T08:25:24.065Z,320.00
2018-08-12T08:26:24.023Z,312.00
2018-08-12T08:27:24.089Z,312.00
2018-08-12T08:28:24.065Z,312.00
2018-08-12T08:29:24.093Z,320.00
2018-08-12T08:30:24.110Z,308.00
2018-08-12T08:31:24.156Z,308.00
2018-08-12T08:32:24.167Z,308.00
2018-08-12T08:33:24.189Z,316.00
2018-08-12T08:34:24.207Z,296.00
2018-08-12T08:35:24.240Z,300.00
2018-08-12T08:36:24.266Z,300.00
2018-08-12T08:37:24.289Z,304.00
2018-08-12T08:38:24.308Z,312.00
2018-08-12T08:39:24.341Z,324.00
2018-08-12T08:40:24.365Z,332.00
2018-08-12T08:41:24.397Z,344.00
2018-08-12T08:42:24.414Z,352.00
2018-08-12T08:43:24.436Z,344.00
2018-08-12T08:44:24.461Z,352.00
2018-08-12T08:45:24.493Z,356.00
2018-08-12T08:46:24.518Z,348.00
2018-08-12T08:47:24.542Z,352.00
2018-08-12T08:48:24.562Z,352.00
2018-08-12T08:49:24.595Z,368.00
2018-08-12T08:50:24.624Z,368.00
2018-08-12T08:51:24.631Z,360.00
2018-08-12T08:52:24.663Z,372.00
2018-08-12T08:53:24.685Z,368.00
2018-08-12T08:54:24.712Z,368.00
2018-08-12T08:55:24.754Z,364.00
2018-08-12T08:56:24.761Z,372.00
2018-08-12T08:57:24.789Z,364.00
2018-08-12T08:58:24.812Z,356.00
2018-08-12T08:59:24.841Z,352.00
2018-08-12T09:00:24.866Z,344.00
2018-08-12T09:01:25.000Z,348.00
2018-08-12T09:02:24.915Z,340.00
2018-08-12T09:03:24.942Z,344.00
2018-08-12T09:04:24.964Z,344.00
2018-08-12T09:05:25.005Z,352.00
2018-08-12T09:06:25.014Z,352.00
2018-08-12T09:07:25.041Z,364.00
2018-08-12T09:08:25.308Z,376.00
2018-08-12T09:09:25.097Z,384.00
2018-08-12T09:10:25.120Z,388.00
2018-08-12T09:11:25.145Z,392.00
2018-08-12T09:12:25.171Z,400.00
2018-08-12T09:13:25.203Z,400.00
2018-08-12T09:14:25.217Z,400.00
2018-08-12T09:15:25.244Z,400.00
2018-08-12T09:16:25.264Z,396.00
2018-08-12T09:17:25.295Z,408.00
2018-08-12T09:18:25.322Z,412.00
2018-08-12T09:19:25.350Z,408.00
2018-08-12T09:20:25.370Z,408.00
2018-08-12T09:21:25.398Z,412.00
2018-08-12T09:22:25.429Z,412.00
2018-08-12T09:23:25.451Z,412.00
2018-08-12T09:24:25.479Z,404.00
2018-08-12T09:25:25.501Z,400.00
2018-08-12T09:26:25.526Z,400.00
2018-08-12T09:27:25.551Z,396.00
2018-08-12T09:28:25.592Z,400.00
2018-08-12T09:29:25.641Z,388.00
2018-08-12T09:30:25.632Z,400.00
2018-08-12T09:31:25.656Z,392.00
2018-08-12T09:32:25.672Z,368.00
2018-08-12T09:33:25.709Z,368.00
2018-08-12T09:34:25.756Z,360.00
2018-08-12T09:35:25.766Z,360.00
2018-08-12T09:36:25.786Z,348.00
2018-08-12T09:37:25.838Z,344.00
2018-08-12T09:38:25.840Z,344.00
2018-08-12T09:39:25.866Z,340.00
2018-08-12T09:40:25.904Z,336.00
2018-08-12T09:41:25.915Z,328.00
2018-08-12T09:42:25.944Z,324.00
2018-08-12T09:43:25.965Z,312.00
2018-08-12T09:44:26.013Z,312.00
2018-08-12T09:45:26.018Z,316.00
2018-08-12T09:46:26.046Z,312.00
2018-08-12T09:47:26.076Z,312.00
2018-08-12T09:48:26.101Z,316.00
2018-08-12T09:49:26.130Z,324.00
2018-08-12T09:50:26.147Z,324.00
2018-08-12T09:51:26.247Z,328.00
2018-08-12T09:52:26.220Z,324.00
2018-08-12T09:53:26.231Z,324.00
2018-08-12T09:54:26.248Z,328.00
2018-08-12T09:55:26.267Z,328.00
2018-08-12T09:56:26.294Z,328.00
2018-08-12T09:57:26.336Z,324.00
2018-08-12T09:58:26.408Z,328.00
2018-08-12T09:59:26.388Z,332.00
2018-08-12T10:00:26.482Z,332.00
2018-08-12T10:01:26.431Z,332.00
2018-08-12T10:02:26.470Z,328.00
2018-08-12T10:03:26.488Z,336.00
2018-08-12T10:04:26.515Z,336.00
2018-08-12T10:05:26.552Z,344.00
2018-08-12T10:06:26.577Z,348.00
2018-08-12T10:07:26.645Z,344.00
2018-08-12T10:08:26.620Z,344.00
2018-08-12T10:09:26.645Z,348.00
2018-08-12T10:10:26.661Z,348.00
2018-08-12T10:11:26.689Z,356.00
2018-08-12T10:12:26.716Z,360.00
2018-08-12T10:13:26.741Z,364.00
2018-08-12T10:14:26.792Z,364.00
2018-08-12T10:15:26.832Z,368.00
2018-08-12T10:16:26.827Z,368.00
2018-08-12T10:17:26.852Z,364.00
2018-08-12T10:18:26.877Z,364.00
2018-08-12T10:19:26.905Z,360.00
2018-08-12T10:20:26.929Z,360.00
2018-08-12T10:21:26.971Z,356.00
2018-08-12T10:22:26.983Z,360.00
2018-08-12T10:23:27.011Z,360.00
2018-08-12T10:24:27.029Z,364.00
2018-08-12T10:25:27.056Z,360.00
2018-08-12T10:26:27.096Z,360.00
2018-08-12T10:27:27.117Z,360.00
2018-08-12T10:28:27.132Z,360.00
2018-08-12T10:29:27.163Z,360.00
2018-08-12T10:30:27.187Z,360.00
2018-08-12T10:31:27.215Z,364.00
2018-08-12T10:32:27.252Z,360.00
2018-08-12T10:33:27.267Z,364.00
2018-08-12T10:34:27.298Z,368.00
2018-08-12T10:35:27.324Z,376.00
2018-08-12T10:36:27.359Z,372.00
2018-08-12T10:37:27.378Z,376.00
2018-08-12T10:38:27.416Z,376.00
2018-08-12T10:39:27.440Z,384.00
2018-08-12T10:40:27.461Z,384.00
2018-08-12T10:41:27.483Z,388.00
2018-08-12T10:42:27.506Z,392.00
2018-08-12T10:43:27.542Z,392.00
2018-08-12T10:44:27.660Z,396.00
2018-08-12T10:45:27.594Z,400.00
2018-08-12T10:46:27.614Z,408.00
2018-08-12T10:47:27.645Z,412.00
2018-08-12T10:48:27.663Z,416.00
2018-08-12T10:49:27.702Z,420.00
2018-08-12T10:50:27.738Z,432.00
2018-08-12T10:51:27.754Z,436.00
2018-08-12T10:52:27.778Z,440.00
2018-08-12T10:53:27.801Z,448.00
2018-08-12T10:54:27.832Z,444.00
2018-08-12T10:55:27.866Z,444.00
2018-08-12T10:56:27.974Z,440.00
2018-08-12T10:57:27.915Z,452.00
2018-08-12T10:58:27.940Z,460.00
2018-08-12T10:59:28.042Z,456.00
2018-08-12T11:00:27.989Z,460.00
2018-08-12T11:01:28.019Z,468.00
2018-08-12T11:02:28.045Z,468.00
2018-08-12T11:03:28.084Z,472.00
2018-08-12T11:04:28.113Z,468.00
2018-08-12T11:05:28.133Z,468.00
2018-08-12T11:06:28.173Z,472.00
2018-08-12T11:07:28.266Z,472.00
2018-08-12T11:08:28.205Z,476.00
2018-08-12T11:09:28.241Z,476.00
2018-08-12T11:10:28.274Z,500.00
2018-08-12T11:11:28.287Z,492.00
2018-08-12T11:12:28.393Z,512.00
2018-08-12T11:13:28.361Z,504.00
2018-08-12T11:14:28.377Z,508.00
2018-08-12T11:15:28.400Z,520.00
2018-08-12T11:16:28.428Z,524.00
2018-08-12T11:17:28.462Z,520.00
2018-08-12T11:18:28.496Z,536.00
2018-08-12T11:19:28.510Z,508.00
2018-08-12T11:20:28.591Z,520.00
2018-08-12T11:21:28.559Z,520.00
2018-08-12T11:22:28.590Z,524.00
2018-08-12T11:23:28.623Z,524.00
2018-08-12T11:24:28.661Z,528.00
2018-08-12T11:25:29.549Z,532.00
2018-08-12T11:26:28.699Z,548.00
2018-08-12T11:27:28.737Z,548.00
2018-08-12T11:28:28.780Z,560.00
2018-08-12T11:29:28.788Z,580.00
2018-08-12T11:30:28.819Z,580.00
2018-08-12T11:31:28.837Z,584.00
2018-08-12T11:32:28.863Z,600.00
2018-08-12T11:33:28.889Z,608.00
2018-08-12T11:34:28.919Z,612.00
2018-08-12T11:35:28.949Z,628.00
2018-08-12T11:36:28.991Z,644.00
2018-08-12T11:37:29.007Z,644.00
2018-08-12T11:38:29.033Z,648.00
2018-08-12T11:39:29.075Z,684.00
2018-08-12T11:40:29.091Z,680.00
2018-08-12T11:41:29.111Z,708.00
2018-08-12T11:42:29.148Z,720.00
2018-08-12T11:43:29.160Z,732.00
2018-08-12T11:44:29.205Z,744.00
2018-08-12T11:45:29.222Z,752.00
2018-08-12T11:46:29.254Z,760.00
2018-08-12T11:47:29.337Z,792.00
2018-08-12T11:48:29.312Z,816.00
2018-08-12T11:49:29.338Z,836.00
2018-08-12T11:50:29.372Z,872.00
2018-08-12T11:51:29.386Z,884.00
2018-08-12T11:52:29.419Z,908.00
2018-08-12T11:53:29.445Z,920.00
2018-08-12T11:54:29.481Z,928.00
2018-08-12T11:55:29.498Z,1000.00
2018-08-12T11:56:29.527Z,996.00
2018-08-12T11:57:29.594Z,1012.00
2018-08-12T11:58:29.576Z,1040.00
2018-08-12T11:59:29.608Z,1108.00
2018-08-12T12:00:29.688Z,1132.00
2018-08-12T12:01:29.663Z,1168.00
2018-08-12T12:02:29.699Z,1180.00
2018-08-12T12:03:29.731Z,1208.00
2018-08-12T12:04:30.728Z,1236.00
2018-08-12T12:05:29.784Z,1224.00
2018-08-12T12:06:29.810Z,1260.00
2018-08-12T12:07:29.835Z,1288.00
2018-08-12T12:08:30.577Z,1264.00
2018-08-12T12:09:29.890Z,1216.00
2018-08-12T12:10:29.933Z,1220.00
2018-08-12T12:11:29.949Z,1172.00
2018-08-12T12:12:29.972Z,1160.00
2018-08-12T12:13:30.005Z,1096.00
2018-08-12T12:14:30.037Z,1088.00
2018-08-12T12:15:30.069Z,1036.00
2018-08-12T12:16:30.103Z,1000.00
2018-08-12T12:17:30.123Z,968.00
2018-08-12T12:18:30.354Z,936.00
2018-08-12T12:19:30.179Z,904.00
2018-08-12T12:20:30.229Z,856.00
2018-08-12T12:21:30.239Z,844.00
2018-08-12T12:22:30.273Z,880.00
2018-08-12T12:23:30.285Z,804.00
2018-08-12T12:24:30.342Z,788.00
2018-08-12T12:25:30.345Z,788.00
2018-08-12T12:26:31.086Z,760.00
2018-08-12T12:27:30.406Z,756.00
2018-08-12T12:28:30.432Z,732.00
2018-08-12T12:29:30.472Z,712.00
2018-08-12T12:30:30.493Z,696.00
2018-08-12T12:31:30.566Z,676.00
2018-08-12T12:32:30.555Z,656.00
2018-08-12T12:33:30.574Z,660.00
2018-08-12T12:34:30.614Z,668.00
2018-08-12T12:35:30.719Z,676.00
2018-08-12T12:36:30.665Z,664.00
2018-08-12T12:37:30.696Z,660.00
2018-08-12T12:38:30.719Z,652.00
2018-08-12T12:39:30.770Z,612.00
2018-08-12T12:40:30.780Z,592.00
2018-08-12T12:41:30.808Z,604.00
2018-08-12T12:42:30.840Z,608.00
2018-08-12T12:43:30.863Z,600.00
2018-08-12T12:44:30.896Z,584.00
2018-08-12T12:45:30.923Z,576.00
2018-08-12T12:46:30.956Z,568.00
2018-08-12T12:47:30.979Z,556.00
2018-08-12T12:48:31.001Z,548.00
2018-08-12T12:49:31.052Z,536.00
2018-08-12T12:50:31.243Z,540.00
2018-08-12T12:51:31.107Z,532.00
2018-08-12T12:52:31.128Z,524.00
2018-08-12T12:53:31.148Z,512.00
2018-08-12T12:54:31.172Z,500.00
2018-08-12T12:55:31.207Z,488.00
2018-08-12T12:56:31.308Z,492.00
2018-08-12T12:57:31.273Z,488.00
2018-08-12T12:58:31.291Z,504.00
2018-08-12T12:59:31.329Z,480.00
2018-08-12T13:00:31.357Z,468.00
2018-08-12T13:01:31.390Z,460.00
2018-08-12T13:02:31.413Z,444.00
2018-08-12T13:03:31.437Z,444.00
2018-08-12T13:04:31.468Z,444.00